createdAt,value
2024-04-12T00:00:00.995Z,1.15
2024-04-12T00:01:00.987Z,1.15
2024-04-12T00:02:00.971Z,1.14
2024-04-12T00:03:01.009Z,1.16
2024-04-12T00:04:00.996Z,1.13
2024-04-12T00:05:00.968Z,1.15
2024-04-12T00:06:01.058Z,1.15
2024-04-12T00:07:00.949Z,1.12
2024-04-12T00:08:00.970Z,1.14
2024-04-12T00:09:00.996Z,1.11
2024-04-12T00:10:00.953Z,1.13
2024-04-12T00:11:00.991Z,1.13
2024-04-12T00:12:01.041Z,1.13
2024-04-12T00:13:00.955Z,1.14
2024-04-12T00:14:00.954Z,1.12
2024-04-12T00:15:01.011Z,1.13
2024-04-12T00:16:01.075Z,1.12
2024-04-12T00:17:00.979Z,1.14
2024-04-12T00:18:00.980Z,1.14
2024-04-12T00:19:00.969Z,1.13
2024-04-12T00:20:00.971Z,1.09
2024-04-12T00:21:01.150Z,1.13
2024-04-12T00:22:01.140Z,1.09
2024-04-12T00:23:00.969Z,1.11
2024-04-12T00:24:01.104Z,1.08
2024-04-12T00:25:00.975Z,1.12
2024-04-12T00:26:01.005Z,1.09
2024-04-12T00:27:01.039Z,1.12
2024-04-12T00:28:00.977Z,1.10
2024-04-12T00:29:01.005Z,1.10
2024-04-12T00:30:01.087Z,1.09
2024-04-12T00:31:01.085Z,1.10
2024-04-12T00:32:01.100Z,1.09
2024-04-12T00:33:01.329Z,1.11
2024-04-12T00:34:01.295Z,1.08
2024-04-12T00:35:01.292Z,1.07
2024-04-12T00:36:01.366Z,1.08
2024-04-12T00:37:01.377Z,1.12
2024-04-12T00:38:01.428Z,1.10
2024-04-12T00:39:01.645Z,1.09
2024-04-12T00:40:01.592Z,1.10
2024-04-12T00:41:01.639Z,1.10
2024-04-12T00:42:01.758Z,1.08
2024-04-12T00:43:01.787Z,1.10
2024-04-12T00:44:01.830Z,1.07
2024-04-12T00:45:01.948Z,1.05
2024-04-12T00:46:01.956Z,1.06
2024-04-12T00:47:02.043Z,1.06
2024-04-12T00:48:02.384Z,1.06
2024-04-12T00:49:02.238Z,1.08
2024-04-12T00:50:02.269Z,1.03
2024-04-12T00:51:02.393Z,1.08
2024-04-12T00:52:02.355Z,1.05
2024-04-12T00:53:02.435Z,1.05
2024-04-12T00:54:02.610Z,1.05
2024-04-12T00:55:02.613Z,1.03
2024-04-12T00:56:02.635Z,1.06
2024-04-12T00:57:02.770Z,1.03
2024-04-12T00:58:02.777Z,1.05
2024-04-12T00:59:02.852Z,1.06
2024-04-12T01:00:03.118Z,1.05
2024-04-12T01:01:02.984Z,1.05
2024-04-12T01:02:02.994Z,1.02
2024-04-12T01:03:03.099Z,1.02
2024-04-12T01:04:03.077Z,1.04
2024-04-12T01:05:03.089Z,1.04
2024-04-12T01:06:03.146Z,1.04
2024-04-12T01:07:03.210Z,1.04
2024-04-12T01:08:03.275Z,1.01
2024-04-12T01:09:03.392Z,1.04
2024-04-12T01:10:03.403Z,1.01
2024-04-12T01:11:03.419Z,1.03
2024-04-12T01:12:03.559Z,1.02
2024-04-12T01:13:04.077Z,1.02
2024-04-12T01:14:03.486Z,1.01
2024-04-12T01:15:03.615Z,1.01
2024-04-12T01:16:03.579Z,1.00
2024-04-12T01:17:03.660Z,1.00
2024-04-12T01:18:03.736Z,1.02
2024-04-12T01:19:03.810Z,1.00
2024-04-12T01:20:03.834Z,1.02
2024-04-12T01:21:03.941Z,0.99
2024-04-12T01:22:03.964Z,1.01
2024-04-12T01:23:04.023Z,1.01
2024-04-12T01:24:04.140Z,1.01
2024-04-12T01:25:04.128Z,1.02
2024-04-12T01:26:04.191Z,1.00
2024-04-12T01:27:04.299Z,1.02
2024-04-12T01:28:04.340Z,1.01
2024-04-12T01:29:04.312Z,1.02
2024-04-12T01:30:04.469Z,1.02
2024-04-12T01:31:04.399Z,1.00
2024-04-12T01:32:04.447Z,1.00
2024-04-12T01:33:04.531Z,0.99
2024-04-12T01:34:04.496Z,0.99
2024-04-12T01:35:04.561Z,0.99
2024-04-12T01:36:04.637Z,0.98
2024-04-12T01:37:04.616Z,0.97
2024-04-12T01:38:04.634Z,0.98
2024-04-12T01:39:04.709Z,0.97
2024-04-12T01:40:04.699Z,0.99
2024-04-12T01:41:04.717Z,0.99
2024-04-12T01:42:04.753Z,0.97
2024-04-12T01:43:04.780Z,0.98
2024-04-12T01:44:04.842Z,1.01
2024-04-12T01:45:04.938Z,1.00
2024-04-12T01:46:04.967Z,0.98
2024-04-12T01:47:05.034Z,0.98
2024-04-12T01:48:05.164Z,0.98
2024-04-12T01:49:05.356Z,1.01
2024-04-12T01:50:05.221Z,0.99
2024-04-12T01:51:05.351Z,0.96
2024-04-12T01:52:05.346Z,0.96
2024-04-12T01:53:05.391Z,0.97
2024-04-12T01:54:05.512Z,0.97
2024-04-12T01:55:05.547Z,0.98
2024-04-12T01:56:05.549Z,0.95
2024-04-12T01:57:05.616Z,0.98
2024-04-12T01:58:05.577Z,0.96
2024-04-12T01:59:05.605Z,0.97
2024-04-12T02:00:05.695Z,0.96
2024-04-12T02:01:05.655Z,0.97
2024-04-12T02:02:05.648Z,0.95
2024-04-12T02:03:05.838Z,0.96
2024-04-12T02:04:05.972Z,0.98
2024-04-12T02:05:05.789Z,0.95
2024-04-12T02:06:05.929Z,0.97
2024-04-12T02:07:05.875Z,0.96
2024-04-12T02:08:05.854Z,0.97
2024-04-12T02:09:05.951Z,0.96
2024-04-12T02:10:05.913Z,0.94
2024-04-12T02:11:05.956Z,0.98
2024-04-12T02:12:05.995Z,0.98
2024-04-12T02:13:05.970Z,0.94
2024-04-12T02:14:05.989Z,0.96
2024-04-12T02:15:06.092Z,0.96
2024-04-12T02:16:06.055Z,0.95
2024-04-12T02:17:06.080Z,0.95
2024-04-12T02:18:06.305Z,0.95
2024-04-12T02:19:06.243Z,0.94
2024-04-12T02:20:06.181Z,0.95
2024-04-12T02:21:06.341Z,0.94
2024-04-12T02:22:06.219Z,0.96
2024-04-12T02:23:06.425Z,0.91
2024-04-12T02:24:06.316Z,0.93
2024-04-12T02:25:06.282Z,0.94
2024-04-12T02:26:06.325Z,0.91
2024-04-12T02:27:06.433Z,0.96
2024-04-12T02:28:06.360Z,0.94
2024-04-12T02:29:06.384Z,0.95
2024-04-12T02:30:06.431Z,0.97
2024-04-12T02:31:06.415Z,0.96
2024-04-12T02:32:06.474Z,0.94
2024-04-12T02:33:06.545Z,0.92
2024-04-12T02:34:06.485Z,0.94
2024-04-12T02:35:06.495Z,0.92
2024-04-12T02:36:06.647Z,0.93
2024-04-12T02:37:06.624Z,0.89
2024-04-12T02:38:06.674Z,0.94
2024-04-12T02:39:06.806Z,0.92
2024-04-12T02:40:06.803Z,0.93
2024-04-12T02:41:06.873Z,0.92
2024-04-12T02:42:06.978Z,0.89
2024-04-12T02:43:06.937Z,0.92
2024-04-12T02:44:06.928Z,0.90
2024-04-12T02:45:07.057Z,0.92
2024-04-12T02:46:06.948Z,0.90
2024-04-12T02:47:06.970Z,0.91
2024-04-12T02:48:07.073Z,0.91
2024-04-12T02:49:06.964Z,0.93
2024-04-12T02:50:06.954Z,0.91
2024-04-12T02:51:07.122Z,0.92
2024-04-12T02:52:07.017Z,0.91
2024-04-12T02:53:07.071Z,0.90
2024-04-12T02:54:07.125Z,0.93
2024-04-12T02:55:07.090Z,0.92
2024-04-12T02:56:07.098Z,0.92
2024-04-12T02:57:07.168Z,0.88
2024-04-12T02:58:07.095Z,0.90
2024-04-12T02:59:07.141Z,0.93
2024-04-12T03:00:07.191Z,0.91
2024-04-12T03:01:07.245Z,0.92
2024-04-12T03:02:07.339Z,0.91
2024-04-12T03:03:07.401Z,0.90
2024-04-12T03:04:07.326Z,0.91
2024-04-12T03:05:07.313Z,0.92
2024-04-12T03:06:07.378Z,0.90
2024-04-12T03:07:07.311Z,0.90
2024-04-12T03:08:07.311Z,0.89
2024-04-12T03:09:07.450Z,0.90
2024-04-12T03:10:07.359Z,0.90
2024-04-12T03:11:07.389Z,0.92
2024-04-12T03:12:07.343Z,0.88
2024-04-12T03:13:07.338Z,0.88
2024-04-12T03:14:07.373Z,0.90
2024-04-12T03:15:07.525Z,0.89
2024-04-12T03:16:07.533Z,0.93
2024-04-12T03:17:07.532Z,0.91
2024-04-12T03:18:07.688Z,0.90
2024-04-12T03:19:07.590Z,0.90
2024-04-12T03:20:07.736Z,0.89
2024-04-12T03:21:07.734Z,0.91
2024-04-12T03:22:07.759Z,0.89
2024-04-12T03:23:07.821Z,0.90
2024-04-12T03:24:07.801Z,0.88
2024-04-12T03:25:07.808Z,0.92
2024-04-12T03:26:07.817Z,0.88
2024-04-12T03:27:07.861Z,0.91
2024-04-12T03:28:07.821Z,0.93
2024-04-12T03:29:07.868Z,0.98
2024-04-12T03:30:07.906Z,1.02
2024-04-12T03:31:07.874Z,1.01
2024-04-12T03:32:07.900Z,0.99
2024-04-12T03:33:07.985Z,1.05
2024-04-12T03:34:08.248Z,1.04
2024-04-12T03:35:07.962Z,1.02
2024-04-12T03:36:08.100Z,1.01
2024-04-12T03:37:08.035Z,1.02
2024-04-12T03:38:08.068Z,1.03
2024-04-12T03:39:08.173Z,1.01
2024-04-12T03:40:08.181Z,1.00
2024-04-12T03:41:08.234Z,1.05
2024-04-12T03:42:08.358Z,1.01
2024-04-12T03:43:08.347Z,1.02
2024-04-12T03:44:08.426Z,1.01
2024-04-12T03:45:08.521Z,0.99
2024-04-12T03:46:08.560Z,0.99
2024-04-12T03:47:08.696Z,0.99
2024-04-12T03:48:08.770Z,0.97
2024-04-12T03:49:08.783Z,0.96
2024-04-12T03:50:08.798Z,0.96
2024-04-12T03:51:08.979Z,0.97
2024-04-12T03:52:08.905Z,0.95
2024-04-12T03:53:08.937Z,0.94
2024-04-12T03:54:08.946Z,0.96
2024-04-12T03:55:08.943Z,0.96
2024-04-12T03:56:08.977Z,0.92
2024-04-12T03:57:09.054Z,0.92
2024-04-12T03:58:09.016Z,0.91
2024-04-12T03:59:09.012Z,0.91
2024-04-12T04:00:09.116Z,0.87
2024-04-12T04:01:09.041Z,0.88
2024-04-12T04:02:09.110Z,0.90
2024-04-12T04:03:09.153Z,0.88
2024-04-12T04:04:09.147Z,0.85
2024-04-12T04:05:09.079Z,0.85
2024-04-12T04:06:09.095Z,0.85
2024-04-12T04:07:09.099Z,0.84
2024-04-12T04:08:09.091Z,0.84
2024-04-12T04:09:09.102Z,0.84
2024-04-12T04:10:09.069Z,0.84
2024-04-12T04:11:09.129Z,0.83
2024-04-12T04:12:09.121Z,0.81
2024-04-12T04:13:09.097Z,0.82
2024-04-12T04:14:09.089Z,0.79
2024-04-12T04:15:09.125Z,0.81
2024-04-12T04:16:09.088Z,0.81
2024-04-12T04:17:09.075Z,0.79
2024-04-12T04:18:09.195Z,0.80
2024-04-12T04:19:09.171Z,0.81
2024-04-12T04:20:09.685Z,0.79
2024-04-12T04:21:16.912Z,0.50
2024-04-12T04:22:16.901Z,0.50
2024-04-12T04:23:16.915Z,0.50
2024-04-12T04:24:16.910Z,0.50
2024-04-12T04:25:16.915Z,0.50
2024-04-12T04:26:16.923Z,0.50
2024-04-12T04:27:16.924Z,0.51
2024-04-12T04:28:16.920Z,0.51
2024-04-12T04:29:16.907Z,0.51
2024-04-12T04:30:16.935Z,0.50
2024-04-12T04:31:24.116Z,0.50
2024-04-12T04:32:24.160Z,0.50
2024-04-12T04:33:24.173Z,0.50
2024-04-12T04:34:24.117Z,0.50
2024-04-12T04:35:24.114Z,0.50
2024-04-12T04:36:24.148Z,0.50
2024-04-12T04:37:32.929Z,0.50
2024-04-12T04:38:25.133Z,0.50
2024-04-12T04:39:24.131Z,0.50
2024-04-12T04:40:24.136Z,0.50
2024-04-12T04:41:27.358Z,0.49
2024-04-12T04:42:24.149Z,0.50
2024-04-12T04:43:24.138Z,0.49
2024-04-12T04:44:24.139Z,0.49
2024-04-12T04:45:24.258Z,0.48
2024-04-12T04:46:24.153Z,0.48
2024-04-12T04:47:24.164Z,0.51
2024-04-12T04:48:24.461Z,0.51
2024-04-12T04:49:24.237Z,0.50
2024-04-12T04:50:24.154Z,0.51
2024-04-12T04:51:24.225Z,0.51
2024-04-12T04:52:24.151Z,0.51
2024-04-12T04:53:24.151Z,0.51
2024-04-12T04:54:24.159Z,0.51
2024-04-12T04:55:24.162Z,0.51
2024-04-12T04:56:24.178Z,0.50
2024-04-12T04:57:24.158Z,0.50
2024-04-12T04:58:24.162Z,0.50
2024-04-12T04:59:24.165Z,0.50
2024-04-12T05:00:24.832Z,0.51
2024-04-12T05:01:24.169Z,0.50
2024-04-12T05:02:24.200Z,0.51
2024-04-12T05:03:24.246Z,0.50
2024-04-12T05:04:24.182Z,0.51
2024-04-12T05:05:26.062Z,0.50
2024-04-12T05:06:24.192Z,0.51
2024-04-12T05:07:24.184Z,0.51
2024-04-12T05:08:24.176Z,0.51
2024-04-12T05:09:24.180Z,0.50
2024-04-12T05:10:24.191Z,0.51
2024-04-12T05:11:24.187Z,0.50
2024-04-12T05:12:24.248Z,0.49
2024-04-12T05:13:24.194Z,0.51
2024-04-12T05:14:24.191Z,0.50
2024-04-12T05:15:24.200Z,0.51
2024-04-12T05:16:24.269Z,0.52
2024-04-12T05:17:24.290Z,0.51
2024-04-12T05:18:24.334Z,0.53
2024-04-12T05:19:24.203Z,0.50
2024-04-12T05:20:24.223Z,0.52
2024-04-12T05:21:24.283Z,0.52
2024-04-12T05:22:24.292Z,0.52
2024-04-12T05:23:24.206Z,0.52
2024-04-12T05:24:24.219Z,0.51
2024-04-12T05:25:24.307Z,0.52
2024-04-12T05:26:24.249Z,0.51
2024-04-12T05:27:24.382Z,0.50
2024-04-12T05:28:24.299Z,0.51
2024-04-12T05:29:24.351Z,0.54
2024-04-12T05:30:24.369Z,0.53
2024-04-12T05:31:24.416Z,0.54
2024-04-12T05:32:24.527Z,0.53
2024-04-12T05:33:24.960Z,0.54
2024-04-12T05:34:24.560Z,0.55
2024-04-12T05:35:24.612Z,0.56
2024-04-12T05:36:24.701Z,0.56
2024-04-12T05:37:24.708Z,0.60
2024-04-12T05:38:24.767Z,0.62
2024-04-12T05:39:24.785Z,0.69
2024-04-12T05:40:24.836Z,0.74
2024-04-12T05:41:24.864Z,0.75
2024-04-12T05:42:24.914Z,0.76
2024-04-12T05:43:25.032Z,0.72
2024-04-12T05:44:25.040Z,0.65
2024-04-12T05:45:25.129Z,0.62
2024-04-12T05:46:25.126Z,0.61
2024-04-12T05:47:25.160Z,0.62
2024-04-12T05:48:25.391Z,0.64
2024-04-12T05:49:25.098Z,0.66
2024-04-12T05:50:25.109Z,0.67
2024-04-12T05:51:26.327Z,0.68
2024-04-12T05:52:25.125Z,0.66
2024-04-12T05:53:25.115Z,0.66
2024-04-12T05:54:25.114Z,0.66
2024-04-12T05:55:25.129Z,0.67
2024-04-12T05:56:25.115Z,0.66
2024-04-12T05:57:25.120Z,0.67
2024-04-12T05:58:25.175Z,0.68
2024-04-12T05:59:25.127Z,0.69
2024-04-12T06:00:25.208Z,0.70
2024-04-12T06:01:25.148Z,0.70
2024-04-12T06:02:25.161Z,0.70
2024-04-12T06:03:25.199Z,0.72
2024-04-12T06:04:25.231Z,0.75
2024-04-12T06:05:25.139Z,0.81
2024-04-12T06:06:25.663Z,0.84
2024-04-12T06:07:25.144Z,0.87
2024-04-12T06:08:25.148Z,0.89
2024-04-12T06:09:25.243Z,0.91
2024-04-12T06:10:25.161Z,0.94
2024-04-12T06:11:25.213Z,0.97
2024-04-12T06:12:25.182Z,0.97
2024-04-12T06:13:25.158Z,0.98
2024-04-12T06:14:25.254Z,1.03
2024-04-12T06:15:25.220Z,1.09
2024-04-12T06:16:25.898Z,1.12
2024-04-12T06:17:25.322Z,1.16
2024-04-12T06:18:25.377Z,1.16
2024-04-12T06:19:25.288Z,1.23
2024-04-12T06:20:25.324Z,1.24
2024-04-12T06:21:25.338Z,1.29
2024-04-12T06:22:25.312Z,1.32
2024-04-12T06:23:28.604Z,1.34
2024-04-12T06:24:25.328Z,1.41
2024-04-12T06:25:25.315Z,1.41
2024-04-12T06:26:25.312Z,1.42
2024-04-12T06:27:25.327Z,1.51
2024-04-12T06:28:25.317Z,1.58
2024-04-12T06:29:32.831Z,1.67
2024-04-12T06:30:26.370Z,1.67
2024-04-12T06:31:25.320Z,1.69
2024-04-12T06:32:25.428Z,1.69
2024-04-12T06:33:25.388Z,1.71
2024-04-12T06:34:25.356Z,1.70
2024-04-12T06:35:25.323Z,1.68
2024-04-12T06:36:25.315Z,1.56
2024-04-12T06:37:25.341Z,1.55
2024-04-12T06:38:25.332Z,1.48
2024-04-12T06:39:25.335Z,1.42
2024-04-12T06:40:25.325Z,1.32
2024-04-12T06:41:25.365Z,1.30
2024-04-12T06:42:25.447Z,1.50
2024-04-12T06:43:25.471Z,1.61
2024-04-12T06:44:25.510Z,1.60
2024-04-12T06:45:25.592Z,1.47
2024-04-12T06:46:25.648Z,1.47
2024-04-12T06:47:25.753Z,1.39
2024-04-12T06:48:25.836Z,1.29
2024-04-12T06:49:25.756Z,1.26
2024-04-12T06:50:25.773Z,1.18
2024-04-12T06:51:25.789Z,1.13
2024-04-12T06:52:25.761Z,1.08
2024-04-12T06:53:25.763Z,1.09
2024-04-12T06:54:25.841Z,1.07
2024-04-12T06:55:25.758Z,1.07
2024-04-12T06:56:25.756Z,1.06
2024-04-12T06:57:25.772Z,1.06
2024-04-12T06:58:25.758Z,1.06
2024-04-12T06:59:25.758Z,1.07
2024-04-12T07:00:25.814Z,1.06
2024-04-12T07:01:25.789Z,1.09
2024-04-12T07:02:26.147Z,1.10
2024-04-12T07:03:25.971Z,1.13
2024-04-12T07:04:25.884Z,1.09
2024-04-12T07:05:25.942Z,1.13
2024-04-12T07:06:25.910Z,1.16
2024-04-12T07:07:25.966Z,1.55
2024-04-12T07:08:25.942Z,2.10
2024-04-12T07:09:25.968Z,2.10
2024-04-12T07:10:25.986Z,2.24
2024-04-12T07:11:26.085Z,2.38
2024-04-12T07:12:26.258Z,2.55
2024-04-12T07:13:26.095Z,2.79
2024-04-12T07:14:26.131Z,2.80
2024-04-12T07:15:26.105Z,2.81
2024-04-12T07:16:26.131Z,2.85
2024-04-12T07:17:26.232Z,2.91
2024-04-12T07:18:26.207Z,3.09
2024-04-12T07:19:26.098Z,3.16
2024-04-12T07:20:28.209Z,3.16
2024-04-12T07:21:26.113Z,3.17
2024-04-12T07:22:26.121Z,3.16
2024-04-12T07:23:26.130Z,3.19
2024-04-12T07:24:26.122Z,3.21
2024-04-12T07:25:26.109Z,3.30
2024-04-12T07:26:26.382Z,3.20
2024-04-12T07:27:26.140Z,3.30
2024-04-12T07:28:26.117Z,3.29
2024-04-12T07:29:26.130Z,3.35
2024-04-12T07:30:26.127Z,3.33
2024-04-12T07:31:26.143Z,3.20
2024-04-12T07:32:26.177Z,3.24
2024-04-12T07:33:26.419Z,3.18
2024-04-12T07:34:26.146Z,3.22
2024-04-12T07:35:26.434Z,3.25
2024-04-12T07:36:26.146Z,3.20
2024-04-12T07:37:26.156Z,3.14
2024-04-12T07:38:26.142Z,3.17
2024-04-12T07:39:26.151Z,3.06
2024-04-12T07:40:26.145Z,3.02
2024-04-12T07:41:26.168Z,2.90
2024-04-12T07:42:26.137Z,2.88
2024-04-12T07:43:26.139Z,2.84
2024-04-12T07:44:26.139Z,2.67
2024-04-12T07:45:26.165Z,2.55
2024-04-12T07:46:26.140Z,2.41
2024-04-12T07:47:26.159Z,2.34
2024-04-12T07:48:29.709Z,2.22
2024-04-12T07:49:26.153Z,2.13
2024-04-12T07:50:26.158Z,1.93
2024-04-12T07:51:26.149Z,1.79
2024-04-12T07:52:26.147Z,1.63
2024-04-12T07:53:26.174Z,1.47
2024-04-12T07:54:26.162Z,1.35
2024-04-12T07:55:26.158Z,1.21
2024-04-12T07:56:26.161Z,1.08
2024-04-12T07:57:26.167Z,1.02
2024-04-12T07:58:26.171Z,0.90
2024-04-12T07:59:26.187Z,0.82
2024-04-12T08:00:26.267Z,0.78
2024-04-12T08:01:26.308Z,0.69
2024-04-12T08:02:27.040Z,0.64
2024-04-12T08:03:26.374Z,0.59
2024-04-12T08:04:26.378Z,0.51
2024-04-12T08:05:26.337Z,0.50
2024-04-12T08:06:26.379Z,0.50
2024-04-12T08:07:29.179Z,0.49
2024-04-12T08:08:26.429Z,0.50
2024-04-12T08:09:26.429Z,0.51
2024-04-12T08:10:26.468Z,0.50
2024-04-12T08:11:26.433Z,0.50
2024-04-12T08:12:26.478Z,0.50
2024-04-12T08:13:26.449Z,0.50
2024-04-12T08:14:26.448Z,0.51
2024-04-12T08:15:26.480Z,0.50
2024-04-12T08:16:26.461Z,0.50
2024-04-12T08:17:26.641Z,0.52
2024-04-12T08:18:26.542Z,0.50
2024-04-12T08:19:26.480Z,0.50
2024-04-12T08:20:26.458Z,0.50
2024-04-12T08:21:26.501Z,0.50
2024-04-12T08:22:26.481Z,0.48
2024-04-12T08:23:26.452Z,0.44
2024-04-12T08:24:27.640Z,0.43
2024-04-12T08:25:26.497Z,0.41
2024-04-12T08:26:26.475Z,0.40
2024-04-12T08:27:26.863Z,0.46
2024-04-12T08:28:26.470Z,0.50
2024-04-12T08:29:26.478Z,0.50
2024-04-12T08:30:26.489Z,0.51
2024-04-12T08:31:26.464Z,0.52
2024-04-12T08:32:26.482Z,0.54
2024-04-12T08:33:26.610Z,0.55
2024-04-12T08:34:26.458Z,0.58
2024-04-12T08:35:26.842Z,0.60
2024-04-12T08:36:26.570Z,0.59
2024-04-12T08:37:26.540Z,0.60
2024-04-12T08:38:26.514Z,0.60
2024-04-12T08:39:26.516Z,0.60
2024-04-12T08:40:27.308Z,0.59
2024-04-12T08:41:26.517Z,0.58
2024-04-12T08:42:26.526Z,0.58
2024-04-12T08:43:26.532Z,0.55
2024-04-12T08:44:26.539Z,0.51
2024-04-12T08:45:26.547Z,0.53
2024-04-12T08:46:26.533Z,0.50
2024-04-12T08:47:26.650Z,0.50
2024-04-12T08:48:26.760Z,0.50
2024-04-12T08:49:26.682Z,0.50
2024-04-12T08:50:26.694Z,0.50
2024-04-12T08:51:26.704Z,0.51
2024-04-12T08:52:26.713Z,0.50
2024-04-12T08:53:26.717Z,0.50
2024-04-12T08:54:26.762Z,0.50
2024-04-12T08:55:26.750Z,0.47
2024-04-12T08:56:26.753Z,0.45
2024-04-12T08:57:26.769Z,0.41
2024-04-12T08:58:26.765Z,0.39
2024-04-12T08:59:26.759Z,0.37
2024-04-12T09:00:28.894Z,0.43
2024-04-12T09:01:26.975Z,0.50
2024-04-12T09:02:26.778Z,0.50
2024-04-12T09:03:27.659Z,0.50
2024-04-12T09:04:26.997Z,0.50
2024-04-12T09:05:26.904Z,0.50
2024-04-12T09:06:26.966Z,0.50
2024-04-12T09:07:26.974Z,0.53
2024-04-12T09:08:29.187Z,0.57
2024-04-12T09:09:27.055Z,0.62
2024-04-12T09:10:26.990Z,0.67
2024-04-12T09:11:27.084Z,0.71
2024-04-12T09:12:27.003Z,0.77
2024-04-12T09:13:28.647Z,0.82
2024-04-12T09:14:30.004Z,0.82
2024-04-12T09:15:27.003Z,0.83
2024-04-12T09:16:27.016Z,0.83
2024-04-12T09:17:27.154Z,0.85
2024-04-12T09:18:27.052Z,0.91
2024-04-12T09:19:27.196Z,1.04
2024-04-12T09:20:27.009Z,1.19
2024-04-12T09:21:27.488Z,1.27
2024-04-12T09:22:27.026Z,1.34
2024-04-12T09:23:27.029Z,1.40
2024-04-12T09:24:27.015Z,1.47
2024-04-12T09:25:27.026Z,1.47
2024-04-12T09:26:27.562Z,1.47
2024-04-12T09:27:27.049Z,1.49
2024-04-12T09:28:27.052Z,1.54
2024-04-12T09:29:27.034Z,1.64
2024-04-12T09:30:27.037Z,1.78
2024-04-12T09:31:27.052Z,1.84
2024-04-12T09:32:27.075Z,1.80
2024-04-12T09:33:27.155Z,1.92
2024-04-12T09:34:27.119Z,2.02
2024-04-12T09:35:27.047Z,2.07
2024-04-12T09:36:27.127Z,2.04
2024-04-12T09:37:27.200Z,2.12
2024-04-12T09:38:27.243Z,2.14
2024-04-12T09:39:27.285Z,2.14
2024-04-12T09:40:27.257Z,2.15
2024-04-12T09:41:27.225Z,2.15
2024-04-12T09:42:27.231Z,2.19
2024-04-12T09:43:27.229Z,2.24
2024-04-12T09:44:27.247Z,2.31
2024-04-12T09:45:27.268Z,3.64
2024-04-12T09:46:27.270Z,3.70
2024-04-12T09:47:27.399Z,3.72
2024-04-12T09:48:27.393Z,3.98
2024-04-12T09:49:27.411Z,4.12
2024-04-12T09:50:27.393Z,4.13
2024-04-12T09:51:27.585Z,4.16
2024-04-12T09:52:27.394Z,4.22
2024-04-12T09:53:27.400Z,4.38
2024-04-12T09:54:27.423Z,4.54
2024-04-12T09:55:27.389Z,4.49
2024-04-12T09:56:27.418Z,4.49
2024-04-12T09:57:27.478Z,4.51
2024-04-12T09:58:27.411Z,4.57
2024-04-12T09:59:27.417Z,4.64
2024-04-12T10:00:27.424Z,4.73
2024-04-12T10:01:27.431Z,4.49
2024-04-12T10:02:27.426Z,4.53
2024-04-12T10:03:27.547Z,4.59
2024-04-12T10:04:27.439Z,4.70
2024-04-12T10:05:27.444Z,4.70
2024-04-12T10:06:27.447Z,4.68
2024-04-12T10:07:27.443Z,4.88
2024-04-12T10:08:27.436Z,4.76
2024-04-12T10:09:27.438Z,4.64
2024-04-12T10:10:27.451Z,4.61
2024-04-12T10:11:27.498Z,4.81
2024-04-12T10:12:27.463Z,4.70
2024-04-12T10:13:27.444Z,4.65
2024-04-12T10:14:27.462Z,4.63
2024-04-12T10:15:27.482Z,4.85
2024-04-12T10:16:27.461Z,4.56
2024-04-12T10:17:27.566Z,4.63
2024-04-12T10:18:27.658Z,4.57
2024-04-12T10:19:27.447Z,4.63
2024-04-12T10:20:27.466Z,4.73
2024-04-12T10:21:27.458Z,4.76
2024-04-12T10:22:27.485Z,4.93
2024-04-12T10:23:27.472Z,4.88
2024-04-12T10:24:27.473Z,4.95
2024-04-12T10:25:27.454Z,5.03
2024-04-12T10:26:27.881Z,5.14
2024-04-12T10:27:27.568Z,5.25
2024-04-12T10:28:27.646Z,5.12
2024-04-12T10:29:27.669Z,5.23
2024-04-12T10:30:27.754Z,5.29
2024-04-12T10:31:27.757Z,5.30
2024-04-12T10:32:27.852Z,5.32
2024-04-12T10:33:27.827Z,5.42
2024-04-12T10:34:27.781Z,5.61
2024-04-12T10:35:27.801Z,5.81
2024-04-12T10:36:27.888Z,5.96
2024-04-12T10:37:27.786Z,6.04
2024-04-12T10:38:36.965Z,6.05
2024-04-12T10:39:28.870Z,6.05
2024-04-12T10:40:27.764Z,6.10
2024-04-12T10:41:27.763Z,6.20
2024-04-12T10:42:27.770Z,6.35
2024-04-12T10:43:27.766Z,6.58
2024-04-12T10:44:27.770Z,6.49
2024-04-12T10:45:27.852Z,6.50
2024-04-12T10:46:27.806Z,6.55
2024-04-12T10:47:27.766Z,6.61
2024-04-12T10:48:27.873Z,6.90
2024-04-12T10:49:27.769Z,6.91
2024-04-12T10:50:27.767Z,6.92
2024-04-12T10:51:27.773Z,7.00
2024-04-12T10:52:27.787Z,7.17
2024-04-12T10:53:27.805Z,7.10
2024-04-12T10:54:27.839Z,6.95
2024-04-12T10:55:27.902Z,7.14
2024-04-12T10:56:27.943Z,7.15
2024-04-12T10:57:28.053Z,7.13
2024-04-12T10:58:28.061Z,7.18
2024-04-12T10:59:28.470Z,7.27
2024-04-12T11:00:28.105Z,7.16
2024-04-12T11:01:28.667Z,7.27
2024-04-12T11:02:28.230Z,7.27
2024-04-12T11:03:28.308Z,6.98
2024-04-12T11:04:28.397Z,7.27
2024-04-12T11:05:28.420Z,7.05
2024-04-12T11:06:28.387Z,7.04
2024-04-12T11:07:28.441Z,7.15
2024-04-12T11:08:28.461Z,7.08
2024-04-12T11:09:28.570Z,7.15
2024-04-12T11:10:28.608Z,7.18
2024-04-12T11:11:28.627Z,7.13
2024-04-12T11:12:28.631Z,7.08
2024-04-12T11:13:28.681Z,6.98
2024-04-12T11:14:28.715Z,7.11
2024-04-12T11:15:28.783Z,6.98
2024-04-12T11:16:28.789Z,7.09
2024-04-12T11:17:28.922Z,6.88
2024-04-12T11:18:29.187Z,6.98
2024-04-12T11:19:28.931Z,6.92
2024-04-12T11:20:28.957Z,7.02
2024-04-12T11:21:28.992Z,6.91
2024-04-12T11:22:29.033Z,6.87
2024-04-12T11:23:29.066Z,6.94
2024-04-12T11:24:29.107Z,6.81
2024-04-12T11:25:29.163Z,6.83
2024-04-12T11:26:29.141Z,6.77
2024-04-12T11:27:29.229Z,6.84
2024-04-12T11:28:29.152Z,6.80
2024-04-12T11:29:29.150Z,6.68
2024-04-12T11:30:29.150Z,6.93
2024-04-12T11:31:29.196Z,6.72
2024-04-12T11:32:30.252Z,6.77
2024-04-12T11:33:33.927Z,6.70
2024-04-12T11:34:32.215Z,6.71
2024-04-12T11:35:30.316Z,6.71
2024-04-12T11:36:29.171Z,6.71
2024-04-12T11:37:29.199Z,6.75
2024-04-12T11:38:29.175Z,6.78
2024-04-12T11:39:29.241Z,6.83
2024-04-12T11:40:29.191Z,6.85
2024-04-12T11:41:29.187Z,6.76
2024-04-12T11:42:29.186Z,6.86
2024-04-12T11:43:29.209Z,6.71
2024-04-12T11:44:29.204Z,6.68
2024-04-12T11:45:29.185Z,6.68
2024-04-12T11:46:29.189Z,6.56
2024-04-12T11:47:29.284Z,6.61
2024-04-12T11:48:29.394Z,6.54
2024-04-12T11:49:29.264Z,6.56
2024-04-12T11:50:29.199Z,6.60
2024-04-12T11:51:29.216Z,6.48
2024-04-12T11:52:29.210Z,6.49
2024-04-12T11:53:29.204Z,6.42
2024-04-12T11:54:29.232Z,6.38
2024-04-12T11:55:29.658Z,6.31
2024-04-12T11:56:29.214Z,6.27
2024-04-12T11:57:29.342Z,6.33
2024-04-12T11:58:29.229Z,6.26
2024-04-12T11:59:29.234Z,6.28
2024-04-12T12:00:29.233Z,6.33
2024-04-12T12:01:29.228Z,6.24
2024-04-12T12:02:29.622Z,6.34
2024-04-12T12:03:29.262Z,6.24
2024-04-12T12:04:29.251Z,6.12
2024-04-12T12:05:29.227Z,6.20
2024-04-12T12:06:29.226Z,6.09
2024-04-12T12:07:29.250Z,6.09
2024-04-12T12:08:29.229Z,6.13
2024-04-12T12:09:29.230Z,5.94
2024-04-12T12:10:29.250Z,6.12
2024-04-12T12:11:29.364Z,6.03
2024-04-12T12:12:29.321Z,6.08
2024-04-12T12:13:29.239Z,5.95
2024-04-12T12:14:29.242Z,5.90
2024-04-12T12:15:29.296Z,5.90
2024-04-12T12:16:29.273Z,5.98
2024-04-12T12:17:29.276Z,5.86
2024-04-12T12:18:29.342Z,5.83
2024-04-12T12:19:29.254Z,5.80
2024-04-12T12:20:29.244Z,5.77
2024-04-12T12:21:29.254Z,5.82
2024-04-12T12:22:29.258Z,5.67
2024-04-12T12:23:29.257Z,5.71
2024-04-12T12:24:29.262Z,5.69
2024-04-12T12:25:29.262Z,5.60
2024-04-12T12:26:29.255Z,5.48
2024-04-12T12:27:29.270Z,5.59
2024-04-12T12:28:29.262Z,5.49
2024-04-12T12:29:29.259Z,5.57
2024-04-12T12:30:29.297Z,5.53
2024-04-12T12:31:29.278Z,5.40
2024-04-12T12:32:29.308Z,5.39
2024-04-12T12:33:29.370Z,5.41
2024-04-12T12:34:29.264Z,5.42
2024-04-12T12:35:29.265Z,5.38
2024-04-12T12:36:29.280Z,5.45
2024-04-12T12:37:29.277Z,5.37
2024-04-12T12:38:29.263Z,5.33
2024-04-12T12:39:29.288Z,5.22
2024-04-12T12:40:29.292Z,5.29
2024-04-12T12:41:29.280Z,5.24
2024-04-12T12:42:29.306Z,5.24
2024-04-12T12:43:29.308Z,5.21
2024-04-12T12:44:29.277Z,5.18
2024-04-12T12:45:29.455Z,5.19
2024-04-12T12:46:29.288Z,5.20
2024-04-12T12:47:29.350Z,5.20
2024-04-12T12:48:29.606Z,5.18
2024-04-12T12:49:29.293Z,5.36
2024-04-12T12:50:29.298Z,5.31
2024-04-12T12:51:29.282Z,5.14
2024-04-12T12:52:29.291Z,5.15
2024-04-12T12:53:29.324Z,5.21
2024-04-12T12:54:29.299Z,5.21
2024-04-12T12:55:29.333Z,5.21
2024-04-12T12:56:29.306Z,5.21
2024-04-12T12:57:29.306Z,5.24
2024-04-12T12:58:29.324Z,5.20
2024-04-12T12:59:31.387Z,5.17
2024-04-12T13:00:29.322Z,5.19
2024-04-12T13:01:29.302Z,5.08
2024-04-12T13:02:29.390Z,5.12
2024-04-12T13:03:29.377Z,5.12
2024-04-12T13:04:29.389Z,5.13
2024-04-12T13:05:29.322Z,5.14
2024-04-12T13:06:29.316Z,5.13
2024-04-12T13:07:29.334Z,5.13
2024-04-12T13:08:29.323Z,5.10
2024-04-12T13:09:29.336Z,5.04
2024-04-12T13:10:29.411Z,5.12
2024-04-12T13:11:29.371Z,5.01
2024-04-12T13:12:29.344Z,4.95
2024-04-12T13:13:29.341Z,4.88
2024-04-12T13:14:29.332Z,4.89
2024-04-12T13:15:29.334Z,4.94
2024-04-12T13:16:29.360Z,4.88
2024-04-12T13:17:29.433Z,4.84
2024-04-12T13:18:29.732Z,4.84